createdAt,value
2023-10-26T00:00:34.732Z,1.40
2023-10-26T00:03:04.846Z,3.90
2023-10-26T00:05:34.939Z,0.63
2023-10-26T00:08:05.087Z,2.65
2023-10-26T00:10:38.132Z,1.98
2023-10-26T00:13:09.023Z,1.48
2023-10-26T00:15:39.161Z,1.63
2023-10-26T00:18:09.197Z,1.40
2023-10-26T00:20:39.202Z,1.60
2023-10-26T00:23:09.622Z,1.60
2023-10-26T00:25:42.178Z,1.80
2023-10-26T00:28:12.074Z,1.80
2023-10-26T00:30:41.935Z,1.35
2023-10-26T00:33:11.959Z,1.27
2023-10-26T00:35:41.860Z,0.90
2023-10-26T00:38:11.771Z,2.78
2023-10-26T00:40:44.421Z,2.53
2023-10-26T00:43:23.711Z,1.02
2023-10-26T00:45:55.442Z,1.10
2023-10-26T00:48:26.293Z,2.45
2023-10-26T00:50:56.459Z,1.30
2023-10-26T00:53:26.443Z,1.58
2023-10-26T00:55:59.368Z,1.50
2023-10-26T00:58:30.841Z,1.70
2023-10-26T01:01:00.956Z,1.38
2023-10-26T01:03:33.491Z,3.03
2023-10-26T01:06:03.543Z,2.78
2023-10-26T01:08:33.534Z,6.05
2023-10-26T01:11:06.215Z,3.28
2023-10-26T01:13:36.580Z,1.42
2023-10-26T01:16:06.872Z,2.10
2023-10-26T01:18:36.939Z,1.35
2023-10-26T01:21:07.531Z,1.20
2023-10-26T01:23:40.504Z,1.42
2023-10-26T01:26:10.608Z,0.98
2023-10-26T01:28:40.494Z,1.48
2023-10-26T01:31:10.484Z,2.58
2023-10-26T01:33:40.421Z,1.33
2023-10-26T01:36:10.893Z,1.10
2023-10-26T01:38:43.366Z,1.58
2023-10-26T01:41:13.231Z,3.17
2023-10-26T01:43:43.204Z,1.75
2023-10-26T01:46:13.130Z,2.40
2023-10-26T01:48:43.449Z,1.65
2023-10-26T01:51:13.434Z,2.63
2023-10-26T01:53:46.009Z,0.93
2023-10-26T01:56:15.941Z,1.00
2023-10-26T01:58:46.355Z,2.92
2023-10-26T02:01:16.686Z,1.52
2023-10-26T02:03:46.579Z,0.95
2023-10-26T02:06:16.616Z,1.85
2023-10-26T02:08:49.281Z,2.88
2023-10-26T02:11:19.569Z,6.18
2023-10-26T02:13:49.496Z,4.88
2023-10-26T02:16:21.392Z,3.42
2023-10-26T02:18:51.485Z,2.58
2023-10-26T02:21:21.562Z,2.15
2023-10-26T02:23:54.084Z,1.52
2023-10-26T02:26:24.040Z,2.30
2023-10-26T02:28:53.944Z,4.70
2023-10-26T02:31:23.836Z,3.20
2023-10-26T02:33:53.710Z,2.33
2023-10-26T02:36:23.706Z,1.83
2023-10-26T02:38:56.270Z,2.90
2023-10-26T02:41:26.291Z,2.00
2023-10-26T02:43:56.176Z,2.20
2023-10-26T02:46:26.439Z,2.45
2023-10-26T02:48:59.986Z,2.30
2023-10-26T02:51:30.231Z,0.90
2023-10-26T02:54:02.739Z,2.85
2023-10-26T02:56:32.646Z,3.08
2023-10-26T02:59:02.610Z,1.95
2023-10-26T03:01:36.410Z,2.92
2023-10-26T03:04:07.133Z,1.50
2023-10-26T03:06:40.292Z,4.15
2023-10-26T03:09:14.810Z,1.33
2023-10-26T03:11:45.410Z,1.23
2023-10-26T03:14:15.448Z,3.22
2023-10-26T03:16:45.401Z,1.20
2023-10-26T03:19:15.326Z,1.65
2023-10-26T03:21:45.383Z,3.30
2023-10-26T03:24:17.908Z,2.35
2023-10-26T03:26:48.073Z,2.25
2023-10-26T03:29:18.021Z,1.65
2023-10-26T03:31:48.188Z,2.35
2023-10-26T03:34:15.570Z,1.35
2023-10-26T03:36:45.449Z,1.67
2023-10-26T03:39:18.368Z,2.65
2023-10-26T03:41:48.291Z,0.65
2023-10-26T03:44:18.211Z,1.80
2023-10-26T03:46:48.090Z,2.97
2023-10-26T03:49:18.066Z,3.22
2023-10-26T03:51:48.008Z,1.42
2023-10-26T03:54:20.640Z,1.08
2023-10-26T03:56:50.601Z,0.88
2023-10-26T03:59:21.494Z,1.05
2023-10-26T04:01:51.421Z,3.42
2023-10-26T04:04:21.408Z,1.40
2023-10-26T04:06:51.368Z,1.08
2023-10-26T04:09:23.970Z,3.50
2023-10-26T04:11:53.951Z,0.80
2023-10-26T04:14:23.923Z,1.48
2023-10-26T04:16:53.877Z,1.45
2023-10-26T04:19:23.850Z,3.58
2023-10-26T04:21:53.742Z,1.40
2023-10-26T04:24:26.302Z,1.00
2023-10-26T04:26:56.484Z,2.50
2023-10-26T04:29:26.391Z,1.40
2023-10-26T04:31:56.315Z,5.00
2023-10-26T04:34:28.165Z,4.35
2023-10-26T04:36:59.528Z,2.05
2023-10-26T04:39:32.017Z,2.65
2023-10-26T04:42:01.948Z,1.85
2023-10-26T04:44:31.896Z,3.60
2023-10-26T04:47:02.559Z,3.72
2023-10-26T04:49:35.507Z,1.25
2023-10-26T04:52:05.573Z,2.45
2023-10-26T04:54:38.019Z,1.45
2023-10-26T04:57:08.299Z,3.13
2023-10-26T04:59:38.149Z,1.98
2023-10-26T05:02:08.155Z,1.50
2023-10-26T05:04:38.578Z,2.47
2023-10-26T05:07:08.537Z,2.88
2023-10-26T05:09:41.124Z,1.15
2023-10-26T05:12:11.292Z,3.78
2023-10-26T05:14:41.307Z,2.58
2023-10-26T05:17:11.215Z,2.70
2023-10-26T05:19:41.077Z,3.63
2023-10-26T05:22:11.001Z,1.63
2023-10-26T05:24:45.400Z,4.53
2023-10-26T05:29:45.219Z,3.88
2023-10-26T05:32:15.256Z,3.83
2023-10-26T05:34:45.389Z,4.90
2023-10-26T05:37:15.420Z,5.65
2023-10-26T05:39:47.845Z,3.30
2023-10-26T05:42:17.753Z,2.38
2023-10-26T05:44:47.662Z,1.95
2023-10-26T05:47:21.616Z,5.10
2023-10-26T05:49:52.071Z,2.97
2023-10-26T05:52:22.098Z,2.65
2023-10-26T05:54:55.178Z,3.50
2023-10-26T05:57:27.044Z,3.60
2023-10-26T05:59:57.396Z,2.95
2023-10-26T06:02:27.356Z,2.90
2023-10-26T06:04:57.229Z,5.18
2023-10-26T06:07:27.141Z,6.00
2023-10-26T06:09:59.643Z,2.38
2023-10-26T06:12:29.768Z,2.17
2023-10-26T06:14:59.859Z,2.90
2023-10-26T06:17:29.946Z,3.35
2023-10-26T06:20:00.039Z,4.32
2023-10-26T06:22:30.013Z,4.25
2023-10-26T06:25:02.596Z,6.15
2023-10-26T06:27:32.618Z,3.13
2023-10-26T06:30:02.744Z,4.18
2023-10-26T06:32:32.651Z,2.20
2023-10-26T06:35:02.545Z,2.55
2023-10-26T06:37:32.484Z,2.58
2023-10-26T06:40:04.969Z,2.10
2023-10-26T06:42:34.907Z,2.88
2023-10-26T06:45:04.871Z,4.55
2023-10-26T06:47:34.899Z,4.03
2023-10-26T06:50:04.867Z,3.83
2023-10-26T06:52:34.788Z,3.03
2023-10-26T06:55:15.616Z,2.63
2023-10-26T06:57:53.935Z,3.83
2023-10-26T07:00:24.049Z,2.80
2023-10-26T07:02:54.061Z,1.88
2023-10-26T07:05:24.079Z,3.05
2023-10-26T07:07:53.991Z,4.28
2023-10-26T07:10:27.211Z,4.07
2023-10-26T07:12:57.118Z,3.50
2023-10-26T07:15:27.059Z,3.08
2023-10-26T07:17:57.031Z,3.47
2023-10-26T07:20:27.663Z,3.53
2023-10-26T07:22:58.117Z,2.67
2023-10-26T07:25:30.746Z,3.42
2023-10-26T07:28:00.851Z,3.40
2023-10-26T07:30:30.822Z,5.72
2023-10-26T07:33:00.915Z,5.30
2023-10-26T07:35:31.071Z,3.83
2023-10-26T07:38:34.392Z,3.92
2023-10-26T07:40:57.864Z,4.60
2023-10-26T07:43:28.238Z,5.93
2023-10-26T07:45:58.626Z,4.10
2023-10-26T07:48:28.885Z,2.88
2023-10-26T07:51:00.147Z,3.83
2023-10-26T07:53:30.354Z,5.38
2023-10-26T07:56:02.970Z,8.95
2023-10-26T07:58:34.114Z,7.35
2023-10-26T08:01:09.552Z,3.60
2023-10-26T08:03:39.602Z,3.50
2023-10-26T08:06:11.586Z,4.57
2023-10-26T08:08:42.227Z,4.28
2023-10-26T08:11:17.400Z,3.13
2023-10-26T08:13:47.372Z,5.32
2023-10-26T08:16:37.224Z,4.22
2023-10-26T08:19:07.206Z,7.57
2023-10-26T08:21:37.197Z,7.80
2023-10-26T08:24:07.837Z,6.78
2023-10-26T08:26:40.289Z,4.22
2023-10-26T08:29:16.225Z,4.65
2023-10-26T08:31:51.567Z,5.57
2023-10-26T08:34:21.582Z,5.13
2023-10-26T08:39:26.831Z,5.57
2023-10-26T08:41:59.818Z,4.88
2023-10-26T08:44:31.154Z,4.95
2023-10-26T08:47:03.461Z,4.97
2023-10-26T08:49:36.153Z,4.78
2023-10-26T08:52:07.079Z,11.27
2023-10-26T08:54:38.355Z,2.40
2023-10-26T08:57:13.924Z,3.88
2023-10-26T08:59:44.111Z,4.30
2023-10-26T09:02:14.148Z,4.40
2023-10-26T09:05:03.969Z,5.18
2023-10-26T09:07:34.955Z,6.45
2023-10-26T09:10:05.208Z,6.47
2023-10-26T09:12:38.136Z,4.20
2023-10-26T09:15:11.723Z,4.85
2023-10-26T09:17:41.856Z,6.88
2023-10-26T09:20:22.718Z,6.03
2023-10-26T09:22:52.798Z,6.97
2023-10-26T09:25:23.258Z,11.02
2023-10-26T09:28:05.103Z,5.40
2023-10-26T09:30:37.579Z,8.35
2023-10-26T09:33:08.039Z,4.50
2023-10-26T09:35:38.236Z,8.57
2023-10-26T09:38:08.299Z,6.05
2023-10-26T09:40:40.075Z,4.60
2023-10-26T09:43:12.674Z,5.30
2023-10-26T09:45:43.157Z,9.73
2023-10-26T09:48:13.886Z,5.07
2023-10-26T09:50:46.496Z,9.57
2023-10-26T09:53:19.384Z,3.65
2023-10-26T09:55:51.251Z,8.45
2023-10-26T09:58:26.125Z,5.93
2023-10-26T10:00:56.127Z,7.65
2023-10-26T10:03:27.558Z,7.90
2023-10-26T10:05:57.494Z,6.57
2023-10-26T10:08:57.291Z,9.30
2023-10-26T10:11:27.309Z,5.57
2023-10-26T10:13:59.817Z,4.00
2023-10-26T10:16:54.515Z,8.70
2023-10-26T10:19:27.304Z,5.88
2023-10-26T10:22:00.322Z,8.10
2023-10-26T10:24:54.699Z,7.60
2023-10-26T10:27:24.858Z,7.15
2023-10-26T10:29:59.335Z,8.20
2023-10-26T10:32:54.805Z,5.80
2023-10-26T10:35:44.925Z,7.10
2023-10-26T10:38:25.754Z,8.43
2023-10-26T10:41:13.508Z,7.53
2023-10-26T10:43:46.461Z,7.50
2023-10-26T10:46:23.163Z,5.40
2023-10-26T10:49:04.445Z,4.72
2023-10-26T10:51:36.196Z,4.75
2023-10-26T10:54:26.403Z,5.78
2023-10-26T10:56:58.525Z,4.05
2023-10-26T10:59:31.630Z,5.43
2023-10-26T11:02:14.563Z,4.55
2023-10-26T11:05:05.437Z,4.88
2023-10-26T11:07:39.518Z,6.78
2023-10-26T11:10:10.664Z,7.15
2023-10-26T11:12:40.649Z,5.93
2023-10-26T11:15:11.782Z,5.43
2023-10-26T11:17:44.545Z,3.90
2023-10-26T11:20:39.167Z,5.57
2023-10-26T11:23:09.307Z,6.18
2023-10-26T11:25:39.263Z,3.95
2023-10-26T11:28:09.932Z,4.22
2023-10-26T11:30:50.310Z,4.38
2023-10-26T11:33:36.133Z,2.60
2023-10-26T11:36:10.996Z,5.03
2023-10-26T11:38:49.460Z,4.20
2023-10-26T11:41:25.973Z,3.80
2023-10-26T11:43:56.201Z,3.17
2023-10-26T11:46:33.706Z,6.40
2023-10-26T11:49:07.201Z,4.05
2023-10-26T11:51:40.461Z,3.03
2023-10-26T11:54:16.100Z,4.82
2023-10-26T11:56:45.981Z,3.35
2023-10-26T11:59:16.120Z,3.65
2023-10-26T12:01:46.060Z,3.45
2023-10-26T12:04:18.605Z,2.78
2023-10-26T12:06:48.758Z,2.13
2023-10-26T12:09:18.705Z,4.47
2023-10-26T12:11:48.674Z,2.72
2023-10-26T12:14:18.539Z,1.55
2023-10-26T12:16:48.693Z,2.42
2023-10-26T12:19:21.167Z,1.90
2023-10-26T12:21:51.193Z,3.25
2023-10-26T12:24:21.315Z,6.28
2023-10-26T12:26:51.208Z,1.38
2023-10-26T12:29:21.075Z,2.15
2023-10-26T12:31:50.978Z,3.25
2023-10-26T12:34:23.508Z,2.67
2023-10-26T12:36:53.492Z,2.53
2023-10-26T12:39:23.501Z,3.70
2023-10-26T12:41:53.415Z,3.28
2023-10-26T12:44:25.466Z,2.50
2023-10-26T12:46:56.169Z,3.22
2023-10-26T12:49:28.695Z,3.22
2023-10-26T12:51:58.636Z,4.68
2023-10-26T12:54:29.250Z,2.50
2023-10-26T12:56:59.868Z,2.20
2023-10-26T12:59:29.936Z,2.00
2023-10-26T13:02:01.899Z,4.07
2023-10-26T13:04:35.693Z,3.70
2023-10-26T13:07:05.673Z,3.17
2023-10-26T13:09:36.729Z,2.47
2023-10-26T13:12:07.254Z,2.30
2023-10-26T13:14:41.056Z,3.20
2023-10-26T13:17:11.036Z,2.30
2023-10-26T13:19:43.679Z,2.20
2023-10-26T13:22:13.845Z,4.40
2023-10-26T13:24:44.169Z,3.63
2023-10-26T13:27:14.213Z,4.57
2023-10-26T13:29:44.238Z,3.30
2023-10-26T13:32:14.266Z,2.70
2023-10-26T13:34:46.906Z,2.85
2023-10-26T13:37:16.872Z,3.17
2023-10-26T13:39:47.061Z,2.20
2023-10-26T13:42:17.208Z,3.97
2023-10-26T13:44:47.477Z,3.03
2023-10-26T13:47:17.436Z,3.38
2023-10-26T13:49:50.278Z,2.95
2023-10-26T13:52:20.273Z,3.28
2023-10-26T13:54:50.192Z,4.63
2023-10-26T13:57:20.052Z,4.88
2023-10-26T13:59:49.928Z,6.95
2023-10-26T14:02:21.022Z,4.22
2023-10-26T14:04:53.534Z,2.55
2023-10-26T14:07:24.557Z,2.85
2023-10-26T14:09:54.939Z,2.65
2023-10-26T14:12:24.912Z,7.50
2023-10-26T14:14:55.672Z,2.40
2023-10-26T14:17:25.619Z,3.65
2023-10-26T14:19:58.220Z,3.20
2023-10-26T14:22:28.182Z,2.67
2023-10-26T14:24:58.312Z,3.13
2023-10-26T14:27:28.325Z,3.10
2023-10-26T14:29:58.194Z,5.28
2023-10-26T14:32:28.193Z,3.75
2023-10-26T14:35:00.825Z,2.95
2023-10-26T14:37:30.759Z,4.80
2023-10-26T14:40:00.776Z,3.38
2023-10-26T14:42:31.422Z,5.10
2023-10-26T14:45:01.451Z,4.80
2023-10-26T14:47:32.126Z,8.23
2023-10-26T14:50:04.687Z,5.53
2023-10-26T14:52:34.791Z,4.38
2023-10-26T14:55:06.197Z,7.50
2023-10-26T14:57:36.671Z,9.07
2023-10-26T15:00:08.395Z,10.25
2023-10-26T15:02:38.478Z,4.47
2023-10-26T15:05:11.970Z,4.93
2023-10-26T15:07:42.005Z,4.78
2023-10-26T15:10:21.803Z,3.45
2023-10-26T15:12:56.076Z,6.35
2023-10-26T15:15:27.188Z,4.28
2023-10-26T15:17:57.946Z,6.82
2023-10-26T15:20:30.666Z,5.80
2023-10-26T15:23:00.603Z,7.65
2023-10-26T15:25:30.623Z,6.57
2023-10-26T15:28:00.604Z,8.98
2023-10-26T15:30:30.666Z,5.50
2023-10-26T15:33:00.631Z,5.90
2023-10-26T15:35:33.548Z,7.53
2023-10-26T15:38:05.704Z,5.40
2023-10-26T15:40:39.531Z,8.10
2023-10-26T15:43:09.538Z,5.82
2023-10-26T15:45:39.494Z,5.97
2023-10-26T15:48:10.040Z,3.67
2023-10-26T15:50:42.680Z,6.88
2023-10-26T15:53:13.134Z,6.55
2023-10-26T15:55:43.134Z,7.13
2023-10-26T15:58:13.108Z,6.40
2023-10-26T16:00:42.996Z,5.90
2023-10-26T16:03:16.233Z,6.60
2023-10-26T16:05:49.313Z,6.53
2023-10-26T16:08:19.196Z,7.25
2023-10-26T16:10:49.174Z,5.90
2023-10-26T16:13:19.366Z,5.10
2023-10-26T16:15:49.372Z,7.95
2023-10-26T16:18:19.363Z,9.93
2023-10-26T16:20:52.239Z,4.80
2023-10-26T16:23:22.335Z,6.85
2023-10-26T16:25:55.020Z,6.80
2023-10-26T16:28:25.264Z,5.07
2023-10-26T16:30:59.590Z,6.53
2023-10-26T16:36:03.821Z,4.43
2023-10-26T16:38:33.757Z,7.80
2023-10-26T16:41:03.782Z,7.18
2023-10-26T16:43:33.686Z,4.25
2023-10-26T16:46:03.726Z,4.13
2023-10-26T16:48:33.708Z,6.15
2023-10-26T16:51:06.613Z,5.72
2023-10-26T16:53:36.564Z,3.60
2023-10-26T16:56:07.589Z,8.63
2023-10-26T16:58:37.850Z,5.90
2023-10-26T17:01:11.777Z,7.50
2023-10-26T17:03:42.898Z,7.03
2023-10-26T17:06:15.522Z,5.32
2023-10-26T17:08:45.565Z,8.18
2023-10-26T17:11:15.573Z,5.85
2023-10-26T17:13:45.617Z,7.53
2023-10-26T17:16:15.608Z,7.47
2023-10-26T17:18:45.678Z,6.35
2023-10-26T17:21:18.247Z,6.93
2023-10-26T17:23:48.156Z,7.70
2023-10-26T17:26:18.456Z,7.57
2023-10-26T17:28:48.985Z,7.55
2023-10-26T17:31:18.951Z,6.45
2023-10-26T17:33:48.909Z,5.63
2023-10-26T17:36:21.496Z,8.30
2023-10-26T17:38:51.417Z,6.70
2023-10-26T17:41:21.765Z,7.35
2023-10-26T17:43:51.700Z,5.90
2023-10-26T17:46:22.697Z,6.82
2023-10-26T17:48:52.929Z,10.90
2023-10-26T17:51:25.483Z,8.63
2023-10-26T17:53:55.447Z,7.35
2023-10-26T17:56:25.975Z,6.68
2023-10-26T17:58:56.292Z,9.73
2023-10-26T18:01:26.434Z,8.75
2023-10-26T18:04:01.427Z,8.23
2023-10-26T18:06:34.700Z,10.98
2023-10-26T18:09:05.120Z,11.27
2023-10-26T18:11:35.016Z,9.82
2023-10-26T18:14:04.982Z,8.90
2023-10-26T18:16:34.964Z,8.23
2023-10-26T18:19:05.803Z,8.75
2023-10-26T18:21:39.030Z,7.47
2023-10-26T18:24:10.424Z,6.88
2023-10-26T18:26:40.377Z,9.40
2023-10-26T18:29:10.369Z,8.48
2023-10-26T18:31:42.191Z,7.93
2023-10-26T18:34:13.995Z,10.00
2023-10-26T18:36:46.866Z,9.00
2023-10-26T18:39:16.887Z,9.63
2023-10-26T18:41:46.816Z,8.43
2023-10-26T18:44:16.873Z,10.32
2023-10-26T18:46:46.836Z,9.27
2023-10-26T18:49:16.841Z,13.02
2023-10-26T18:51:49.396Z,7.93
2023-10-26T18:54:19.410Z,13.55
2023-10-26T18:56:49.396Z,10.82
2023-10-26T18:59:19.273Z,8.07
2023-10-26T19:01:49.189Z,9.10
2023-10-26T19:04:19.568Z,8.60
2023-10-26T19:06:52.751Z,9.00
2023-10-26T19:09:22.671Z,11.70
2023-10-26T19:11:52.614Z,11.57
2023-10-26T19:14:22.531Z,14.95
2023-10-26T19:16:52.445Z,14.07
2023-10-26T19:19:22.386Z,12.23
2023-10-26T19:21:54.958Z,11.75
2023-10-26T19:24:24.915Z,11.35
2023-10-26T19:26:54.805Z,12.73
2023-10-26T19:29:24.737Z,17.13
2023-10-26T19:31:54.689Z,17.88
2023-10-26T19:34:24.615Z,12.10
2023-10-26T19:36:57.344Z,13.82
2023-10-26T19:39:27.358Z,14.05
2023-10-26T19:41:57.278Z,14.35
2023-10-26T19:44:27.151Z,10.98
2023-10-26T19:46:57.135Z,13.60
2023-10-26T19:49:27.667Z,11.65
2023-10-26T19:52:00.174Z,11.32
2023-10-26T19:54:30.086Z,14.57
2023-10-26T19:57:00.154Z,13.43
2023-10-26T19:59:30.071Z,11.65
2023-10-26T20:02:00.238Z,11.75
2023-10-26T20:04:30.362Z,11.73
2023-10-26T20:07:04.275Z,9.77
2023-10-26T20:09:34.583Z,12.77
2023-10-26T20:12:05.005Z,11.25
2023-10-26T20:14:34.970Z,9.98
2023-10-26T20:17:05.006Z,12.63
2023-10-26T20:19:35.036Z,12.27
2023-10-26T20:22:07.883Z,11.38
2023-10-26T20:24:37.913Z,10.23
2023-10-26T20:27:08.211Z,13.85
2023-10-26T20:29:38.690Z,13.38
2023-10-26T20:32:09.418Z,11.00
2023-10-26T20:34:39.334Z,7.50
2023-10-26T20:37:12.099Z,13.75
2023-10-26T20:39:42.578Z,8.95
2023-10-26T20:42:12.605Z,15.25
2023-10-26T20:44:42.605Z,12.20
2023-10-26T20:47:12.744Z,9.88
2023-10-26T20:49:42.824Z,7.95
2023-10-26T20:52:15.474Z,9.52
2023-10-26T20:54:45.367Z,11.50
2023-10-26T20:57:15.306Z,11.00
2023-10-26T20:59:46.696Z,10.38
2023-10-26T21:02:17.972Z,8.38
2023-10-26T21:04:47.906Z,10.82
2023-10-26T21:07:20.432Z,12.52
2023-10-26T21:09:50.358Z,11.05
2023-10-26T21:12:20.351Z,10.15
2023-10-26T21:14:50.218Z,12.55
2023-10-26T21:17:20.645Z,12.65
2023-10-26T21:19:50.556Z,10.77
2023-10-26T21:22:23.153Z,10.57
2023-10-26T21:24:53.233Z,11.68
2023-10-26T21:27:23.201Z,13.07
2023-10-26T21:29:53.162Z,13.60
2023-10-26T21:32:23.295Z,10.93
2023-10-26T21:34:53.415Z,8.93
2023-10-26T21:37:26.025Z,7.85
2023-10-26T21:39:55.989Z,8.60
2023-10-26T21:42:26.990Z,9.52
2023-10-26T21:44:57.158Z,8.07
2023-10-26T21:47:27.148Z,10.32
2023-10-26T21:49:57.014Z,8.85
2023-10-26T21:52:29.521Z,8.90
2023-10-26T21:54:59.672Z,9.13
2023-10-26T21:57:29.741Z,10.93
2023-10-26T21:59:59.722Z,8.25
2023-10-26T22:02:30.080Z,9.05
2023-10-26T22:05:00.113Z,12.30
2023-10-26T22:07:32.612Z,9.57
2023-10-26T22:10:02.641Z,8.70
2023-10-26T22:12:33.533Z,11.70
2023-10-26T22:15:04.707Z,10.95
2023-10-26T22:17:35.203Z,14.65
2023-10-26T22:20:05.489Z,11.68
2023-10-26T22:22:38.160Z,11.85
2023-10-26T22:25:09.075Z,12.32
2023-10-26T22:27:38.957Z,8.43
2023-10-26T22:30:10.482Z,11.77
2023-10-26T22:32:40.371Z,12.13
2023-10-26T22:35:11.757Z,8.43
2023-10-26T22:37:44.550Z,7.90
2023-10-26T22:40:15.836Z,10.48
2023-10-26T22:42:45.880Z,8.80
2023-10-26T22:45:16.886Z,9.18
2023-10-26T22:47:47.640Z,10.35
2023-10-26T22:50:17.579Z,7.55
2023-10-26T22:52:50.118Z,11.02
2023-10-26T22:55:20.267Z,9.60
2023-10-26T22:57:50.381Z,9.98
2023-10-26T23:00:20.610Z,7.05
2023-10-26T23:02:50.528Z,11.05
2023-10-26T23:05:20.846Z,12.32
2023-10-26T23:07:54.232Z,12.27
2023-10-26T23:10:24.242Z,8.83
2023-10-26T23:12:54.183Z,9.60
2023-10-26T23:15:24.091Z,9.15
2023-10-26T23:17:54.639Z,9.00
2023-10-26T23:20:24.964Z,7.28
2023-10-26T23:22:57.449Z,9.75
2023-10-26T23:25:27.367Z,11.65
2023-10-26T23:27:57.318Z,8.35
2023-10-26T23:30:27.261Z,12.15
2023-10-26T23:32:59.191Z,9.73
2023-10-26T23:35:32.084Z,12.20
2023-10-26T23:38:08.189Z,6.18
2023-10-26T23:40:38.738Z,9.88
2023-10-26T23:43:08.732Z,8.55
2023-10-26T23:45:38.663Z,8.43
2023-10-26T23:48:08.706Z,10.27
2023-10-26T23:50:38.674Z,8.70
2023-10-26T23:53:20.316Z,7.32
2023-10-26T23:55:50.894Z,6.25
2023-10-26T23:58:20.860Z,6.25
